Time;durP1;ratioP1;P1;durP2;ratioP2;P2;SDS_P1;SDS_P2;PMS_P1;PMS_P2;Temp;Humidity;BMP_temperature;BMP_pressure;BME280_temperature;BME280_humidity;BME280_pressure;Samples;Min_cycle;Max_cycle;Signal;HPM_P1;HPM_P2
2024/03/14 00:00:08;;;;;;;5.27;4.00;;;8.30;40.80;;;;;;5132905;27;20946;-72
2024/03/14 00:02:34;;;;;;;4.73;3.40;;;8.20;40.80;;;;;;5132418;27;20887;-72
2024/03/14 00:04:59;;;;;;;4.23;3.30;;;8.10;41.50;;;;;;5132529;27;20538;-73
2024/03/14 00:07:26;;;;;;;7.10;4.90;;;8.10;41.20;;;;;;5133800;27;20552;-72
2024/03/14 00:09:51;;;;;;;6.30;3.67;;;8.00;40.60;;;;;;5133617;27;20202;-71
2024/03/14 00:12:17;;;;;;;4.93;4.17;;;8.10;40.70;;;;;;5133959;27;20865;-72
2024/03/14 00:14:50;;;;;;;5.20;3.47;;;8.00;40.10;;;;;;5134059;27;20197;-71
2024/03/14 00:17:18;;;;;;;4.30;3.40;;;8.00;40.60;;;;;;5134040;27;20636;-72
2024/03/14 00:19:46;;;;;;;5.40;3.57;;;8.00;40.60;;;;;;5133889;27;20420;-72
2024/03/14 00:22:12;;;;;;;5.60;3.23;;;7.90;40.60;;;;;;5132187;27;20471;-72
2024/03/14 00:24:37;;;;;;;5.80;4.40;;;7.90;40.50;;;;;;5133440;27;20418;-72
2024/03/14 00:27:03;;;;;;;4.53;4.13;;;7.80;40.50;;;;;;5133014;27;20628;-71
2024/03/14 00:29:33;;;;;;;5.17;3.17;;;7.80;40.50;;;;;;5133294;27;20218;-71
2024/03/14 00:31:59;;;;;;;4.33;3.60;;;7.80;40.90;;;;;;5133006;27;20416;-71
2024/03/14 00:34:26;;;;;;;5.40;3.30;;;7.80;40.40;;;;;;5132331;28;20481;-72
2024/03/14 00:36:53;;;;;;;4.73;3.20;;;7.80;40.50;;;;;;5132184;28;20519;-71
2024/03/14 00:39:18;;;;;;;5.23;4.20;;;7.70;40.50;;;;;;5132330;28;20456;-71
2024/03/14 00:41:44;;;;;;;4.73;3.80;;;7.60;41.30;;;;;;5132093;28;20483;-71
2024/03/14 00:44:09;;;;;;;7.37;4.67;;;7.60;41.90;;;;;;5132098;28;20197;-72
2024/03/14 00:46:35;;;;;;;5.30;3.80;;;7.50;43.00;;;;;;5132033;28;20186;-72
2024/03/14 00:49:00;;;;;;;5.90;4.73;;;7.50;43.70;;;;;;5132131;28;20209;-71
2024/03/14 00:51:26;;;;;;;6.70;5.67;;;7.40;43.40;;;;;;5132198;28;20203;-71
2024/03/14 00:53:54;;;;;;;4.70;3.83;;;7.40;44.60;;;;;;5131964;28;20201;-71
2024/03/14 00:56:20;;;;;;;7.63;4.40;;;7.40;45.00;;;;;;5131754;28;20166;-71
2024/03/14 00:58:47;;;;;;;6.20;4.40;;;7.40;44.60;;;;;;5132008;28;20412;-71
2024/03/14 01:01:13;;;;;;;7.10;4.93;;;7.30;45.80;;;;;;5132032;28;20410;-71
2024/03/14 01:03:39;;;;;;;7.80;5.10;;;7.30;45.10;;;;;;5132535;27;21003;-70
2024/03/14 01:06:11;;;;;;;7.40;5.30;;;7.30;45.50;;;;;;5135432;28;20408;-72
2024/03/14 01:08:37;;;;;;;8.10;5.20;;;7.30;45.40;;;;;;5134325;28;20420;-72
2024/03/14 01:11:03;;;;;;;5.33;3.63;;;7.20;46.50;;;;;;5134385;28;20419;-73
2024/03/14 01:13:28;;;;;;;8.00;5.30;;;7.20;46.20;;;;;;5135454;28;20780;-72
2024/03/14 01:15:55;;;;;;;9.50;6.43;;;7.20;45.80;;;;;;5135287;28;20412;-72
2024/03/14 01:18:20;;;;;;;8.83;5.67;;;7.20;47.00;;;;;;5135548;28;20179;-72
2024/03/14 01:20:46;;;;;;;6.80;5.70;;;7.10;47.20;;;;;;5135496;28;20794;-72
2024/03/14 01:23:11;;;;;;;8.00;5.10;;;7.10;47.30;;;;;;5134036;28;20768;-72
2024/03/14 01:25:37;;;;;;;6.83;4.80;;;7.20;46.90;;;;;;5135423;28;20257;-72
2024/03/14 01:28:04;;;;;;;6.77;5.03;;;7.10;45.70;;;;;;5135302;28;20399;-72
2024/03/14 01:30:30;;;;;;;8.83;5.50;;;7.10;46.60;;;;;;5135343;28;20929;-73
2024/03/14 01:32:56;;;;;;;7.43;4.90;;;7.10;46.40;;;;;;5120634;27;227838;-73
2024/03/14 01:35:21;;;;;;;5.80;4.47;;;7.00;46.90;;;;;;5135803;27;20170;-71
2024/03/14 01:37:47;;;;;;;7.20;5.17;;;7.00;47.00;;;;;;5135189;27;20189;-70
2024/03/14 01:40:12;;;;;;;7.70;5.10;;;7.00;46.20;;;;;;5136765;27;20173;-71
2024/03/14 01:42:45;;;;;;;7.43;5.70;;;7.00;47.60;;;;;;5136338;27;20312;-71
2024/03/14 01:45:14;;;;;;;7.23;4.70;;;7.00;47.70;;;;;;5136437;27;20182;-72
2024/03/14 01:47:43;;;;;;;8.33;5.33;;;7.00;47.50;;;;;;5136484;27;20418;-72
2024/03/14 01:50:11;;;;;;;7.30;5.33;;;7.10;48.70;;;;;;5136575;27;20777;-71
2024/03/14 01:52:37;;;;;;;6.97;4.97;;;7.10;48.30;;;;;;5136384;27;20431;-70
2024/03/14 01:55:04;;;;;;;5.83;4.33;;;7.10;46.90;;;;;;5136040;27;20907;-71
2024/03/14 01:57:32;;;;;;;4.53;3.87;;;7.10;47.20;;;;;;5136184;27;20932;-71
2024/03/14 01:59:59;;;;;;;7.93;5.57;;;7.10;46.60;;;;;;5136115;27;20948;-72
2024/03/14 02:02:25;;;;;;;8.60;4.33;;;7.20;46.30;;;;;;5136091;27;20462;-72
2024/03/14 02:05:10;;;;;;;6.97;5.40;;;7.20;45.60;;;;;;5136139;27;20408;-72
2024/03/14 02:07:39;;;;;;;5.37;3.50;;;7.20;44.70;;;;;;5136544;27;20415;-72
2024/03/14 02:10:13;;;;;;;4.97;4.00;;;7.20;44.50;;;;;;5136674;27;20925;-71
2024/03/14 02:12:39;;;;;;;8.50;4.60;;;7.20;44.40;;;;;;5145318;27;20431;-73
2024/03/14 02:15:06;;;;;;;5.87;4.70;;;7.20;43.90;;;;;;5151226;27;20443;-73
2024/03/14 02:17:32;;;;;;;6.23;4.23;;;7.20;42.20;;;;;;5150015;27;20427;-73
2024/03/14 02:19:57;;;;;;;7.47;4.80;;;7.10;43.80;;;;;;5144635;27;20425;-72
2024/03/14 02:22:27;;;;;;;6.80;5.23;;;7.10;45.90;;;;;;5137366;27;20460;-72
2024/03/14 02:24:52;;;;;;;6.80;5.23;;;7.20;43.70;;;;;;5136564;27;20534;-73
2024/03/14 02:27:22;;;;;;;8.73;7.13;;;7.20;42.90;;;;;;5136694;27;20515;-72
2024/03/14 02:29:48;;;;;;;11.30;9.17;;;7.10;42.70;;;;;;5136208;27;20587;-72
2024/03/14 02:32:14;;;;;;;10.70;8.00;;;7.00;45.20;;;;;;5158424;22;20446;-68
2024/03/14 02:34:40;;;;;;;9.53;7.87;;;6.90;45.60;;;;;;5112482;28;20209;-69
2024/03/14 02:37:05;;;;;;;15.53;6.40;;;6.80;46.70;;;;;;5114348;28;20505;-69
2024/03/14 02:39:32;;;;;;;7.60;5.83;;;6.80;48.20;;;;;;5114531;28;20179;-69
2024/03/14 02:42:01;;;;;;;8.33;6.00;;;6.80;48.70;;;;;;5114080;27;20234;-69
2024/03/14 02:44:27;;;;;;;7.83;6.73;;;6.80;48.10;;;;;;5114151;28;20430;-69
2024/03/14 02:46:52;;;;;;;9.27;6.37;;;6.80;48.60;;;;;;5114032;28;20395;-70
2024/03/14 02:49:20;;;;;;;14.30;8.27;;;6.80;49.60;;;;;;5114050;28;20404;-70
2024/03/14 02:51:46;;;;;;;8.60;6.37;;;6.80;50.40;;;;;;5112841;28;20189;-69
2024/03/14 02:54:15;;;;;;;11.63;7.93;;;6.90;52.20;;;;;;5114004;28;20462;-69
2024/03/14 02:56:41;;;;;;;11.43;7.33;;;7.00;53.00;;;;;;5114265;28;20438;-69
2024/03/14 02:59:09;;;;;;;13.00;9.27;;;7.10;52.40;;;;;;5114354;28;20409;-69
2024/03/14 03:01:37;;;;;;;8.53;6.20;;;7.00;52.00;;;;;;5114086;28;20417;-70
2024/03/14 03:04:03;;;;;;;11.40;8.30;;;7.00;52.80;;;;;;5113987;28;20433;-69
2024/03/14 03:06:29;;;;;;;8.90;6.57;;;7.10;52.30;;;;;;5113709;28;20914;-70
2024/03/14 03:08:56;;;;;;;8.90;7.73;;;7.10;52.30;;;;;;5114005;28;20420;-70
2024/03/14 03:11:22;;;;;;;7.83;6.07;;;7.10;50.80;;;;;;5113942;28;20180;-70
2024/03/14 03:13:48;;;;;;;9.40;6.83;;;6.90;50.10;;;;;;5113606;28;20416;-69
2024/03/14 03:16:13;;;;;;;9.10;6.20;;;6.90;51.30;;;;;;5113711;28;20182;-69
2024/03/14 03:18:39;;;;;;;10.00;7.10;;;6.90;51.20;;;;;;5113688;28;20199;-70
2024/03/14 03:21:05;;;;;;;11.30;6.70;;;6.90;51.80;;;;;;5114001;28;20907;-70
2024/03/14 03:23:31;;;;;;;10.87;8.27;;;6.90;50.80;;;;;;5113619;28;20315;-70
2024/03/14 03:25:56;;;;;;;11.00;8.30;;;6.80;51.00;;;;;;5113082;28;20213;-70
2024/03/14 03:28:22;;;;;;;9.87;7.93;;;6.80;52.20;;;;;;5113318;28;20966;-70
2024/03/14 03:30:48;;;;;;;10.63;8.50;;;6.80;51.80;;;;;;5113658;28;20195;-72
2024/03/14 03:33:17;;;;;;;8.40;6.70;;;6.80;50.40;;;;;;5113358;28;20259;-69
2024/03/14 03:35:45;;;;;;;11.17;7.57;;;6.70;51.30;;;;;;5113394;28;20198;-70
2024/03/14 03:38:13;;;;;;;11.10;8.10;;;6.60;49.50;;;;;;5113433;28;20420;-70
2024/03/14 03:40:39;;;;;;;8.33;6.90;;;6.50;49.40;;;;;;5113368;28;20419;-70
2024/03/14 03:43:07;;;;;;;9.40;6.90;;;6.50;49.40;;;;;;5113424;28;20463;-69
2024/03/14 03:45:32;;;;;;;11.10;7.67;;;6.40;50.20;;;;;;5113041;28;20909;-70
2024/03/14 03:47:58;;;;;;;8.60;7.40;;;6.40;49.30;;;;;;5113331;28;20434;-69
2024/03/14 03:50:23;;;;;;;11.43;7.50;;;6.30;49.20;;;;;;5113565;28;20264;-70
2024/03/14 03:52:49;;;;;;;7.47;6.00;;;6.30;49.90;;;;;;5113469;28;20557;-70
2024/03/14 03:55:18;;;;;;;8.23;7.00;;;6.20;50.00;;;;;;5113331;28;20247;-70
2024/03/14 03:57:44;;;;;;;7.27;6.50;;;6.20;49.80;;;;;;5112007;28;20462;-69
2024/03/14 04:02:55;;;;;;;11.50;7.07;;;6.10;49.10;;;;;;5112838;28;20532;-69
2024/03/14 04:05:20;;;;;;;7.77;5.20;;;6.10;50.50;;;;;;5112681;28;20403;-69
2024/03/14 04:07:49;;;;;;;9.57;6.10;;;6.10;51.40;;;;;;5113008;28;20406;-69
2024/03/14 04:10:15;;;;;;;8.30;7.20;;;6.00;51.10;;;;;;5112852;28;20783;-70
2024/03/14 04:12:40;;;;;;;9.63;5.30;;;6.00;52.00;;;;;;5112997;28;20886;-69
2024/03/14 04:15:06;;;;;;;9.63;6.33;;;6.00;51.70;;;;;;5112608;28;20410;-70
2024/03/14 04:17:33;;;;;;;8.67;6.37;;;6.00;51.70;;;;;;5111643;28;20675;-70
2024/03/14 04:19:59;;;;;;;11.80;7.13;;;6.00;51.90;;;;;;5112888;28;20430;-69
2024/03/14 04:22:25;;;;;;;10.57;7.07;;;5.90;51.60;;;;;;5112431;28;20455;-70
2024/03/14 04:24:54;;;;;;;11.17;8.03;;;5.80;51.80;;;;;;5112768;28;20419;-69
2024/03/14 04:27:21;;;;;;;8.67;6.90;;;5.80;51.60;;;;;;5112708;28;20395;-69
2024/03/14 04:29:47;;;;;;;10.37;7.70;;;5.70;52.40;;;;;;5112544;28;20404;-69
2024/03/14 04:32:13;;;;;;;9.17;5.97;;;5.70;52.80;;;;;;5112593;28;20403;-69
2024/03/14 04:34:39;;;;;;;10.20;7.50;;;5.70;52.90;;;;;;5113503;28;20425;-69
2024/03/14 04:37:08;;;;;;;11.87;7.90;;;5.70;53.60;;;;;;5111339;28;20411;-70
2024/03/14 04:39:33;;;;;;;7.63;6.33;;;5.80;53.20;;;;;;5113252;28;20442;-69
2024/03/14 04:41:59;;;;;;;15.70;9.63;;;5.80;53.70;;;;;;5112658;28;20442;-70
2024/03/14 04:44:25;;;;;;;10.13;7.60;;;5.80;53.30;;;;;;5112445;28;20289;-70
2024/03/14 04:46:54;;;;;;;11.83;9.53;;;5.80;53.80;;;;;;5112460;28;20207;-70
2024/03/14 04:49:23;;;;;;;18.40;9.90;;;5.80;53.00;;;;;;5112330;28;20402;-69
2024/03/14 04:51:48;;;;;;;13.77;8.73;;;5.80;54.50;;;;;;5110882;28;20427;-70
2024/03/14 04:54:14;;;;;;;12.97;8.33;;;5.80;54.60;;;;;;5112318;28;21004;-70
2024/03/14 04:56:40;;;;;;;11.60;8.97;;;5.90;54.70;;;;;;5110842;28;20180;-70
2024/03/14 04:59:09;;;;;;;9.37;7.80;;;5.80;54.00;;;;;;5112425;28;20168;-69
2024/03/14 05:01:35;;;;;;;16.90;9.80;;;5.80;54.70;;;;;;5112325;28;20407;-70
2024/03/14 05:04:03;;;;;;;12.13;7.83;;;5.80;54.70;;;;;;5112148;28;20475;-69
2024/03/14 05:06:28;;;;;;;9.63;7.80;;;5.80;54.00;;;;;;5112378;28;20928;-70
2024/03/14 05:08:54;;;;;;;10.33;7.40;;;5.80;54.60;;;;;;5110998;28;20418;-70
2024/03/14 05:11:21;;;;;;;10.77;7.23;;;5.80;55.20;;;;;;5112369;28;20173;-70
2024/03/14 05:13:49;;;;;;;10.87;7.50;;;5.80;55.20;;;;;;5111017;28;20443;-70
2024/03/14 05:16:16;;;;;;;9.27;7.27;;;5.90;54.50;;;;;;5112340;28;20419;-70
2024/03/14 05:18:42;;;;;;;13.77;7.03;;;5.90;53.80;;;;;;5112066;28;20486;-69
2024/03/14 05:21:10;;;;;;;10.43;7.43;;;5.90;53.80;;;;;;5112097;28;20417;-69
2024/03/14 05:23:36;;;;;;;8.27;6.67;;;5.90;53.00;;;;;;5111955;28;20239;-69
2024/03/14 05:26:02;;;;;;;13.50;6.90;;;5.90;53.20;;;;;;5112007;28;20442;-69
2024/03/14 05:28:27;;;;;;;8.87;6.77;;;5.90;52.00;;;;;;5110957;28;20925;-68
2024/03/14 05:30:53;;;;;;;10.67;7.57;;;5.80;51.60;;;;;;5112351;28;20173;-69
2024/03/14 05:33:19;;;;;;;10.87;6.70;;;5.80;51.90;;;;;;5111793;28;20311;-67
2024/03/14 05:35:46;;;;;;;9.07;7.17;;;5.80;51.90;;;;;;5111870;28;20427;-68
2024/03/14 05:38:13;;;;;;;9.43;6.83;;;5.80;53.00;;;;;;5112326;28;20203;-69
2024/03/14 05:40:38;;;;;;;8.03;5.80;;;5.80;51.60;;;;;;5111098;28;20804;-70
2024/03/14 05:43:04;;;;;;;10.50;6.00;;;5.80;52.10;;;;;;5112042;28;20462;-69
2024/03/14 05:45:34;;;;;;;8.20;5.80;;;5.80;52.40;;;;;;5111732;28;20174;-69
2024/03/14 05:48:11;;;;;;;9.83;7.37;;;5.80;52.90;;;;;;5111743;28;20621;-69
2024/03/14 05:50:37;;;;;;;9.13;6.50;;;5.90;52.90;;;;;;5114001;28;20440;-70
2024/03/14 05:53:03;;;;;;;8.40;6.10;;;6.00;53.20;;;;;;5115671;28;20435;-69
2024/03/14 05:55:32;;;;;;;9.87;6.33;;;6.00;52.90;;;;;;5115159;28;20410;-69
2024/03/14 05:57:57;;;;;;;7.57;5.40;;;6.00;52.80;;;;;;5115705;28;20783;-69
2024/03/14 06:00:24;;;;;;;6.63;5.43;;;6.00;52.80;;;;;;5116284;28;20399;-69
2024/03/14 06:02:50;;;;;;;8.50;6.83;;;;;;;;;;5115919;28;20307;-69
2024/03/14 06:05:15;;;;;;;9.43;6.80;;;6.00;51.10;;;;;;5115485;28;20407;-70
2024/03/14 06:07:41;;;;;;;9.47;5.73;;;6.10;52.90;;;;;;5114294;28;20426;-69
2024/03/14 06:10:09;;;;;;;8.87;6.50;;;6.10;53.00;;;;;;5115430;28;20708;-69
2024/03/14 06:12:37;;;;;;;7.83;5.50;;;6.20;52.60;;;;;;5113603;28;20803;-70
2024/03/14 06:15:03;;;;;;;9.80;7.23;;;6.30;53.00;;;;;;5114725;28;20805;-68
2024/03/14 06:17:29;;;;;;;8.63;5.97;;;6.30;52.70;;;;;;5114966;28;20416;-70
2024/03/14 06:19:57;;;;;;;8.20;5.27;;;6.40;52.20;;;;;;5114933;28;20421;-70
2024/03/14 06:22:22;;;;;;;8.33;5.67;;;6.40;51.60;;;;;;5116257;28;20660;-70
2024/03/14 06:24:48;;;;;;;7.67;4.93;;;6.50;49.40;;;;;;5122794;27;20518;-69
2024/03/14 06:27:14;;;;;;;7.90;4.20;;;6.40;49.30;;;;;;5133109;28;20186;-69
2024/03/14 06:29:41;;;;;;;7.03;4.90;;;6.40;48.90;;;;;;5133993;28;20175;-70
2024/03/14 06:32:07;;;;;;;8.27;5.70;;;6.40;49.30;;;;;;5129453;28;20415;-69
2024/03/14 06:34:32;;;;;;;6.87;5.03;;;6.40;49.40;;;;;;5122898;28;21022;-70
2024/03/14 06:36:59;;;;;;;8.63;5.43;;;6.50;49.90;;;;;;5118337;28;20178;-70
2024/03/14 06:39:28;;;;;;;9.33;5.03;;;6.60;50.60;;;;;;5115817;28;20192;-70
2024/03/14 06:41:53;;;;;;;8.30;5.70;;;6.60;51.40;;;;;;5115563;28;20696;-70
2024/03/14 06:44:19;;;;;;;7.10;4.90;;;6.80;52.40;;;;;;5115159;28;20429;-70
2024/03/14 06:46:44;;;;;;;8.20;6.37;;;6.90;52.50;;;;;;5114554;28;20574;-70
2024/03/14 06:49:13;;;;;;;9.70;7.00;;;;;;;;;;5114615;28;20180;-70
2024/03/14 06:51:41;;;;;;;9.30;5.77;;;;;;;;;;5114344;28;20175;-70
2024/03/14 06:54:08;;;;;;;7.73;5.43;;;;;;;;;;5114356;28;20641;-70
2024/03/14 06:56:37;;;;;;;7.90;6.10;;;;;;;;;;5114198;28;20408;-70
2024/03/14 06:59:06;;;;;;;9.17;6.30;;;;;;;;;;5114289;28;20397;-70
2024/03/14 07:01:32;;;;;;;8.03;6.90;;;7.90;51.60;;;;;;5112635;28;20931;-70
2024/03/14 07:04:01;;;;;;;8.67;5.83;;;7.90;50.60;;;;;;5113748;28;20444;-71
2024/03/14 07:06:26;;;;;;;8.50;6.67;;;8.10;54.60;;;;;;5113874;28;20534;-69
2024/03/14 07:08:56;;;;;;;7.23;5.80;;;8.00;50.60;;;;;;5114182;28;20405;-69
2024/03/14 07:11:28;;;;;;;7.40;5.90;;;8.00;46.60;;;;;;5114078;28;20186;-70
2024/03/14 07:13:57;;;;;;;9.13;5.20;;;8.00;42.80;;;;;;5113847;28;20791;-68
2024/03/14 07:16:23;;;;;;;5.47;4.93;;;7.90;40.30;;;;;;5113535;28;20911;-68
2024/03/14 07:18:49;;;;;;;8.97;5.20;;;7.80;39.60;;;;;;5113554;28;20459;-69
2024/03/14 07:21:17;;;;;;;7.30;5.40;;;7.90;39.20;;;;;;5113669;28;20580;-68
2024/03/14 07:23:47;;;;;;;8.37;5.03;;;8.20;40.80;;;;;;5113336;28;20484;-69
2024/03/14 07:26:22;;;;;;;5.10;4.37;;;8.20;36.40;;;;;;5113506;28;20464;-69
2024/03/14 07:28:53;;;;;;;6.10;4.10;;;8.20;36.00;;;;;;5112251;28;20407;-69
2024/03/14 07:31:22;;;;;;;6.40;4.00;;;8.30;37.20;;;;;;5113428;28;20437;-69
2024/03/14 07:33:48;;;;;;;5.20;4.33;;;8.40;37.90;;;;;;5113159;28;20461;-69
2024/03/14 07:36:17;;;;;;;7.60;5.57;;;8.70;37.30;;;;;;5112993;28;20423;-70
2024/03/14 07:38:49;;;;;;;7.03;5.00;;;8.80;35.90;;;;;;5113381;28;20428;-70
2024/03/14 07:41:25;;;;;;;5.23;4.60;;;8.70;35.20;;;;;;5113531;28;20823;-70
2024/03/14 07:43:53;;;;;;;8.50;5.50;;;8.90;37.60;;;;;;5111764;28;20461;-70
2024/03/14 07:46:22;;;;;;;12.90;5.23;;;9.30;39.10;;;;;;5112947;28;20407;-70
2024/03/14 07:48:49;;;;;;;6.07;5.47;;;9.60;35.80;;;;;;5112951;28;20411;-70
2024/03/14 07:51:15;;;;;;;6.57;4.83;;;9.90;35.10;;;;;;5113102;28;20501;-70
2024/03/14 07:53:40;;;;;;;5.63;4.03;;;9.80;32.90;;;;;;5111605;28;20936;-70
2024/03/14 07:56:09;;;;;;;6.07;4.77;;;10.10;38.00;;;;;;5112750;28;20414;-70
2024/03/14 07:58:38;;;;;;;6.03;4.13;;;;;;;;;;5112954;28;20287;-71
2024/03/14 08:01:09;;;;;;;6.90;4.53;;;;;;;;;;5112864;28;20785;-70
2024/03/14 08:03:38;;;;;;;6.53;4.03;;;;;;;;;;5113108;28;21024;-70
2024/03/14 08:06:04;;;;;;;4.67;3.30;;;;;;;;;;5112657;28;20527;-70
2024/03/14 08:08:30;;;;;;;7.13;4.20;;;;;;;;;;5113263;28;20411;-69
2024/03/14 08:10:56;;;;;;;5.30;3.13;;;;;;;;;;5113727;28;20413;-70
2024/03/14 08:13:23;;;;;;;4.10;2.80;;;;;;;;;;5112899;28;20448;-71
2024/03/14 08:15:52;;;;;;;5.07;2.90;;;;;;;;;;5112531;28;20443;-70
2024/03/14 08:18:22;;;;;;;5.40;3.77;;;;;;;;;;5112626;28;20444;-71
2024/03/14 08:20:48;;;;;;;7.33;4.47;;;;;;;;;;5112511;28;20414;-70
2024/03/14 08:23:17;;;;;;;4.63;3.70;;;;;;;;;;5112405;28;20453;-70
2024/03/14 08:25:43;;;;;;;5.57;4.10;;;;;;;;;;5110951;28;20424;-70
2024/03/14 08:28:09;;;;;;;5.17;3.77;;;;;;;;;;5111086;28;20469;-70
2024/03/14 08:30:39;;;;;;;5.40;3.57;;;;;;;;;;5112398;28;20407;-70
2024/03/14 08:33:07;;;;;;;5.37;3.90;;;;;;;;;;5112543;27;20443;-70
2024/03/14 08:35:36;;;;;;;6.90;4.83;;;;;;;;;;5112121;28;20501;-70
2024/03/14 08:38:04;;;;;;;9.27;5.57;;;;;;;;;;5112186;28;20431;-70
2024/03/14 08:40:30;;;;;;;6.37;4.00;;;;;;;;;;5112082;28;20495;-68
2024/03/14 08:42:56;;;;;;;8.33;4.03;;;;;;;;;;5112035;28;20552;-69
2024/03/14 08:45:23;;;;;;;7.20;4.97;;;;;;;;;;5111850;28;20425;-68
2024/03/14 08:47:49;;;;;;;7.50;5.30;;;;;;;;;;5111859;28;20800;-68
2024/03/14 08:50:20;;;;;;;6.33;4.00;;;;;;;;;;5111987;28;20413;-68
2024/03/14 08:52:47;;;;;;;9.43;6.27;;;;;;;;;;5111855;28;20516;-68
2024/03/14 08:58:02;;;;;;;4.90;4.07;;;;;;;;;;5112052;28;20453;-68
2024/03/14 09:00:28;;;;;;;5.93;4.23;;;;;;;;;;5112181;28;20547;-69
2024/03/14 09:02:54;;;;;;;8.03;4.90;;;;;;;;;;5111700;28;20562;-68
2024/03/14 09:05:20;;;;;;;4.60;3.67;;;;;;;;;;5112278;28;20778;-68
2024/03/14 09:07:46;;;;;;;5.10;3.70;;;;;;;;;;5112096;28;20961;-68
2024/03/14 09:10:33;;;;;;;5.70;4.23;;;;;;;;;;5111661;28;20413;-68
2024/03/14 09:12:59;;;;;;;4.20;3.40;;;;;;;;;;5111615;28;20803;-68
2024/03/14 09:15:25;;;;;;;7.23;3.50;;;;;;;;;;5111466;28;20416;-69
2024/03/14 09:17:51;;;;;;;4.57;2.93;;;;;;;;;;5111824;28;20413;-68
2024/03/14 09:20:19;;;;;;;7.07;3.70;;;;;;;;;;5111905;28;20413;-69
2024/03/14 09:22:46;;;;;;;4.33;3.10;;;;;;;;;;5111397;28;20472;-69
2024/03/14 09:25:12;;;;;;;3.97;3.00;;;;;;;;;;5113228;28;20897;-69
2024/03/14 09:27:38;;;;;;;4.93;3.57;;;;;;;;;;5115769;28;20429;-68
2024/03/14 09:30:08;;;;;;;6.20;3.90;;;;;;;;;;5116025;28;20758;-69
2024/03/14 09:32:35;;;;;;;7.10;3.73;;;;;;;;;;5115397;28;20483;-69
2024/03/14 09:35:01;;;;;;;4.60;3.27;;;;;;;;;;5115498;28;20418;-69
2024/03/14 09:37:27;;;;;;;4.60;3.00;;;;;;;;;;5115516;28;20426;-68
2024/03/14 09:39:57;;;;;;;5.13;3.73;;;;;;;;;;5115556;28;20402;-68
2024/03/14 09:42:25;;;;;;;4.80;3.90;;;;;;;;;;5115335;28;20533;-68
2024/03/14 09:44:51;;;;;;;4.13;2.80;;;;;;;;;;5115421;28;20402;-69
2024/03/14 09:47:35;;;;;;;4.00;3.10;;;;;;;;;;5115225;28;20485;-69
2024/03/14 09:50:04;;;;;;;4.43;3.10;;;;;;;;;;5115518;28;20410;-69
2024/03/14 09:52:30;;;;;;;5.30;3.00;;;;;;;;;;5115231;28;20517;-69
2024/03/14 09:54:57;;;;;;;4.63;3.30;;;;;;;;;;5115111;27;20406;-68
2024/03/14 09:57:23;;;;;;;5.93;4.07;;;;;;;;;;5115077;28;20410;-69
2024/03/14 09:59:50;;;;;;;4.63;3.63;;;;;;;;;;5115093;28;20459;-69
2024/03/14 10:02:17;;;;;;;3.23;2.50;;;;;;;;;;5114900;28;20469;-68
2024/03/14 10:04:43;;;;;;;5.97;2.57;;;;;;;;;;5115120;28;20876;-70
2024/03/14 10:07:12;;;;;;;6.73;3.00;;;;;;;;;;5114782;28;20429;-69
2024/03/14 10:09:38;;;;;;;3.87;3.20;;;;;;;;;;5114880;28;20410;-69
2024/03/14 10:12:06;;;;;;;3.90;2.87;;;;;;;;;;5114861;28;20418;-69
2024/03/14 10:14:36;;;;;;;3.53;2.83;;;;;;;;;;5114688;28;20441;-69
2024/03/14 10:17:02;;;;;;;4.60;3.37;;;;;;;;;;5114704;28;20492;-69
2024/03/14 10:19:30;;;;;;;4.83;3.60;;;;;;;;;;5114756;28;20429;-69
2024/03/14 10:21:57;;;;;;;4.90;3.07;;;;;;;;;;5114712;28;20454;-69
2024/03/14 10:24:27;;;;;;;6.07;4.07;;;;;;;;;;5114754;27;20428;-69
2024/03/14 10:26:53;;;;;;;4.90;3.60;;;;;;;;;;5114518;28;20414;-69
2024/03/14 10:29:22;;;;;;;5.27;3.80;;;;;;;;;;5114535;28;20406;-68
2024/03/14 10:31:48;;;;;;;3.90;2.73;;;;;;;;;;5114559;28;20411;-68
2024/03/14 10:34:15;;;;;;;5.03;3.67;;;;;;;;;;5114251;28;20929;-68
2024/03/14 10:36:41;;;;;;;4.00;2.57;;;;;;;;;;5114078;28;20403;-68
2024/03/14 10:39:16;;;;;;;5.50;3.53;;;;;;;;;;5114676;28;20411;-68
2024/03/14 10:41:51;;;;;;;3.60;2.67;;;;;;;;;;5114747;28;20443;-68
2024/03/14 10:44:18;;;;;;;3.70;2.70;;;;;;;;;;5116060;27;20766;-68
2024/03/14 10:46:53;;;;;;;5.07;3.13;;;;;;;;;;5123868;28;20402;-68
2024/03/14 10:49:20;;;;;;;6.10;3.33;;;;;;;;;;5128250;28;20402;-69
2024/03/14 10:51:52;;;;;;;7.13;3.30;;;;;;;;;;5130127;28;20414;-69
2024/03/14 10:54:23;;;;;;;10.13;3.07;;;;;;;;;;5118886;28;20831;-69
2024/03/14 10:56:50;;;;;;;3.23;2.40;;;;;;;;;;5114123;28;20404;-69
2024/03/14 10:59:16;;;;;;;3.40;2.23;;;;;;;;;;5114204;28;20438;-69
2024/03/14 11:01:50;;;;;;;4.00;3.07;;;;;;;;;;5114173;28;20459;-69
2024/03/14 11:04:20;;;;;;;4.83;3.43;;;;;;;;;;5114252;27;20430;-69
2024/03/14 11:06:49;;;;;;;3.00;2.40;;;;;;;;;;5113946;28;20410;-69
2024/03/14 11:09:17;;;;;;;3.90;2.77;;;;;;;;;;5114067;28;20445;-69
2024/03/14 11:11:45;;;;;;;2.93;2.03;;;;;;;;;;5113783;28;20406;-69
2024/03/14 11:14:12;;;;;;;3.97;2.40;;;;;;;;;;5113764;28;20436;-68
2024/03/14 11:16:43;;;;;;;3.10;2.20;;;;;;;;;;5113611;28;20901;-68
2024/03/14 11:19:14;;;;;;;7.10;3.57;;;;;;;;;;5113699;28;20414;-68
2024/03/14 11:21:42;;;;;;;4.40;3.10;;;;;;;;;;5113813;28;20403;-68
2024/03/14 11:24:12;;;;;;;6.40;3.27;;;;;;;;;;5113748;28;20464;-70
2024/03/14 11:26:39;;;;;;;3.37;2.30;;;;;;;;;;5113504;28;20410;-70
2024/03/14 11:29:08;;;;;;;3.10;2.20;;;;;;;;;;5113609;28;20434;-69
2024/03/14 11:31:45;;;;;;;3.40;2.63;;;;;;;;;;5113380;28;20782;-69
2024/03/14 11:34:15;;;;;;;3.17;2.33;;;;;;;;;;5113180;28;20441;-69
2024/03/14 11:36:41;;;;;;;3.60;2.80;;;;;;;;;;5113197;28;20410;-69
2024/03/14 11:39:15;;;;;;;3.23;2.37;;;;;;;;;;5113143;28;20407;-68
2024/03/14 11:41:41;;;;;;;2.97;1.90;;;;;;;;;;5113269;28;20410;-70
2024/03/14 11:44:33;;;;;;;2.83;2.03;;;;;;;;;;5113076;28;20456;-69
2024/03/14 11:47:01;;;;;;;3.93;1.97;;;;;;;;;;5111243;28;20415;-68
2024/03/14 11:49:29;;;;;;;3.27;2.20;;;;;;;;;;5111637;28;20757;-68
2024/03/14 11:51:55;;;;;;;3.70;2.13;;;;;;;;;;5113151;28;20432;-68
2024/03/14 11:54:22;;;;;;;2.63;1.87;;;;;;;;;;5112854;28;20430;-68
2024/03/14 11:56:48;;;;;;;2.40;1.60;;;;;;;;;;5112751;28;20410;-68
2024/03/14 11:59:15;;;;;;;2.97;1.80;;;;;;;;;;5113133;28;20414;-68
2024/03/14 12:01:41;;;;;;;2.93;2.00;;;;;;;;;;5112922;28;20467;-68
2024/03/14 12:04:13;;;;;;;3.00;1.97;;;;;;;;;;5111684;28;20835;-68
2024/03/14 12:06:41;;;;;;;4.87;2.10;;;;;;;;;;5112866;28;20403;-68
2024/03/14 12:09:19;;;;;;;2.23;1.53;;;;;;;;;;5112860;28;20474;-68
2024/03/14 12:11:45;;;;;;;2.47;1.60;;;;;;;;;;5112879;28;20411;-68
2024/03/14 12:14:14;;;;;;;2.03;1.67;;;;;;;;;;5112694;28;20426;-68
2024/03/14 12:16:45;;;;;;;3.23;2.00;;;;;;;;;;5113061;28;20437;-68
2024/03/14 12:19:15;;;;;;;3.07;2.20;;;;;;;;;;5112562;28;20406;-68
2024/03/14 12:21:41;;;;;;;3.97;1.80;;;;;;;;;;5112601;28;20444;-68
2024/03/14 12:24:12;;;;;;;2.00;1.53;;;;;;;;;;5112450;28;20825;-68
2024/03/14 12:26:38;;;;;;;2.70;1.80;;;;;;;;;;5112511;28;20410;-69
2024/03/14 12:29:05;;;;;;;2.50;1.80;;;;;;;;;;5112660;28;20421;-68
2024/03/14 12:31:32;;;;;;;3.47;1.70;;;;;;;;;;5112516;28;20414;-68
2024/03/14 12:33:59;;;;;;;2.73;1.57;;;;;;;;;;5112250;28;20511;-68
2024/03/14 12:36:28;;;;;;;3.33;1.70;;;;;;;;;;5112167;28;20497;-68
2024/03/14 12:38:55;;;;;;;2.30;1.60;;;;;;;;;;5112346;28;20456;-68
2024/03/14 12:41:22;;;;;;;2.00;1.27;;;;;;;;;;5112350;28;20417;-68
2024/03/14 12:43:48;;;;;;;3.20;1.60;;;;;;;;;;5112283;28;20462;-68
2024/03/14 12:46:19;;;;;;;2.80;1.53;;;;;;;;;;5112120;28;20445;-68
2024/03/14 12:48:46;;;;;;;3.77;1.97;;;;;;;;;;5112124;28;20399;-68
2024/03/14 12:51:12;;;;;;;2.63;1.50;;;;;;;;;;5112144;28;20421;-68
2024/03/14 12:53:42;;;;;;;2.30;1.80;;;;;;;;;;5112122;28;20426;-68
2024/03/14 12:56:08;;;;;;;2.43;1.37;;;;;;;;;;5112231;28;20436;-69
2024/03/14 12:58:34;;;;;;;1.90;1.23;;;18.50;1.00;;;;;;5111710;28;20410;-69
2024/03/14 13:01:00;;;;;;;2.13;1.40;;;18.60;1.00;;;;;;5111537;28;20407;-69
2024/03/14 13:03:27;;;;;;;3.07;1.80;;;18.80;1.00;;;;;;5111823;28;20472;-68
2024/03/14 13:05:57;;;;;;;3.90;1.47;;;18.80;1.00;;;;;;5111682;28;20463;-68
2024/03/14 13:08:28;;;;;;;2.13;1.20;;;18.60;1.00;;;;;;5112066;28;20421;-68
2024/03/14 13:11:18;;;;;;;2.00;1.10;;;18.60;1.00;;;;;;5111884;28;20446;-68
2024/03/14 13:13:44;;;;;;;2.73;1.60;;;18.60;1.00;;;;;;5111702;28;20960;-68
2024/03/14 13:16:29;;;;;;;2.00;1.33;;;18.60;1.00;;;;;;5111446;28;20425;-69
2024/03/14 13:18:55;;;;;;;3.40;1.80;;;18.50;1.00;;;;;;5111685;28;20937;-69
2024/03/14 13:21:30;;;;;;;2.43;1.77;;;18.60;1.00;;;;;;5112038;28;20414;-69
2024/03/14 13:23:56;;;;;;;2.63;1.23;;;18.60;1.00;;;;;;5111690;28;20542;-69
2024/03/14 13:26:23;;;;;;;2.30;1.37;;;18.60;1.00;;;;;;5111303;28;20445;-69
2024/03/14 13:28:49;;;;;;;4.37;1.30;;;18.80;1.00;;;;;;5111706;28;20169;-69
2024/03/14 13:31:17;;;;;;;2.50;1.57;;;18.80;1.00;;;;;;5112008;28;20413;-69
2024/03/14 13:33:44;;;;;;;2.57;1.60;;;19.00;1.00;;;;;;5111532;28;20484;-69
2024/03/14 13:36:11;;;;;;;2.30;1.33;;;19.10;1.00;;;;;;5109938;28;20959;-69
2024/03/14 13:38:37;;;;;;;2.10;1.30;;;19.10;1.00;;;;;;5111950;28;20414;-69